sensor_id;sensor_type;location;lat;lon;timestamp;P1;durP1;ratioP1;P2;durP2;ratioP2
62050;SDS011;48008;51.204;6.766;2023-04-03T00:01:06;16.17;;;7.18;;
62050;SDS011;48008;51.204;6.766;2023-04-03T00:03:33;19.10;;;7.50;;
62050;SDS011;48008;51.204;6.766;2023-04-03T00:05:59;14.93;;;7.22;;
62050;SDS011;48008;51.204;6.766;2023-04-03T00:08:27;16.38;;;7.65;;
62050;SDS011;48008;51.204;6.766;2023-04-03T00:10:53;16.42;;;7.40;;
62050;SDS011;48008;51.204;6.766;2023-04-03T00:13:20;14.90;;;7.38;;
62050;SDS011;48008;51.204;6.766;2023-04-03T00:15:47;15.80;;;7.60;;
62050;SDS011;48008;51.204;6.766;2023-04-03T00:18:14;15.88;;;7.53;;
62050;SDS011;48008;51.204;6.766;2023-04-03T00:20:41;14.60;;;7.75;;
62050;SDS011;48008;51.204;6.766;2023-04-03T00:23:07;16.67;;;8.23;;
62050;SDS011;48008;51.204;6.766;2023-04-03T00:25:34;17.95;;;7.72;;
62050;SDS011;48008;51.204;6.766;2023-04-03T00:28:02;15.35;;;7.70;;
62050;SDS011;48008;51.204;6.766;2023-04-03T00:30:30;14.38;;;7.95;;
62050;SDS011;48008;51.204;6.766;2023-04-03T00:32:57;14.40;;;7.82;;
62050;SDS011;48008;51.204;6.766;2023-04-03T00:35:24;23.58;;;8.40;;
62050;SDS011;48008;51.204;6.766;2023-04-03T00:37:51;17.83;;;8.38;;
62050;SDS011;48008;51.204;6.766;2023-04-03T00:40:19;20.35;;;8.60;;
62050;SDS011;48008;51.204;6.766;2023-04-03T00:42:48;21.33;;;8.43;;
62050;SDS011;48008;51.204;6.766;2023-04-03T00:47:55;20.45;;;8.68;;
62050;SDS011;48008;51.204;6.766;2023-04-03T00:50:22;19.85;;;8.40;;
62050;SDS011;48008;51.204;6.766;2023-04-03T00:52:49;18.90;;;8.32;;
62050;SDS011;48008;51.204;6.766;2023-04-03T00:55:17;17.55;;;8.68;;
62050;SDS011;48008;51.204;6.766;2023-04-03T00:57:43;18.48;;;9.48;;
62050;SDS011;48008;51.204;6.766;2023-04-03T01:00:13;20.17;;;8.82;;
62050;SDS011;48008;51.204;6.766;2023-04-03T01:02:43;22.27;;;9.85;;
62050;SDS011;48008;51.204;6.766;2023-04-03T01:05:12;18.05;;;8.88;;
62050;SDS011;48008;51.204;6.766;2023-04-03T01:07:43;20.70;;;9.10;;
62050;SDS011;48008;51.204;6.766;2023-04-03T01:10:12;17.88;;;8.90;;
62050;SDS011;48008;51.204;6.766;2023-04-03T01:12:42;16.10;;;7.82;;
62050;SDS011;48008;51.204;6.766;2023-04-03T01:15:15;21.48;;;8.93;;
62050;SDS011;48008;51.204;6.766;2023-04-03T01:17:47;15.80;;;8.13;;
62050;SDS011;48008;51.204;6.766;2023-04-03T01:20:30;20.25;;;8.38;;
62050;SDS011;48008;51.204;6.766;2023-04-03T01:23:15;18.75;;;7.75;;
62050;SDS011;48008;51.204;6.766;2023-04-03T01:25:54;20.35;;;8.52;;
62050;SDS011;48008;51.204;6.766;2023-04-03T01:28:27;19.80;;;7.82;;
62050;SDS011;48008;51.204;6.766;2023-04-03T01:33:43;19.77;;;8.70;;
62050;SDS011;48008;51.204;6.766;2023-04-03T01:36:19;18.20;;;8.07;;
62050;SDS011;48008;51.204;6.766;2023-04-03T01:38:48;17.63;;;7.88;;
62050;SDS011;48008;51.204;6.766;2023-04-03T01:41:15;18.58;;;7.93;;
62050;SDS011;48008;51.204;6.766;2023-04-03T01:43:44;21.63;;;7.68;;
62050;SDS011;48008;51.204;6.766;2023-04-03T01:46:11;15.43;;;7.35;;
62050;SDS011;48008;51.204;6.766;2023-04-03T01:48:37;17.92;;;7.35;;
62050;SDS011;48008;51.204;6.766;2023-04-03T01:51:04;14.95;;;6.95;;
62050;SDS011;48008;51.204;6.766;2023-04-03T01:53:31;15.93;;;6.85;;
62050;SDS011;48008;51.204;6.766;2023-04-03T01:55:58;17.05;;;6.97;;
62050;SDS011;48008;51.204;6.766;2023-04-03T01:58:25;24.35;;;7.75;;
62050;SDS011;48008;51.204;6.766;2023-04-03T02:00:53;19.70;;;7.32;;
62050;SDS011;48008;51.204;6.766;2023-04-03T02:03:20;16.95;;;7.15;;
62050;SDS011;48008;51.204;6.766;2023-04-03T02:05:47;21.50;;;7.22;;
62050;SDS011;48008;51.204;6.766;2023-04-03T02:08:15;17.42;;;7.13;;
62050;SDS011;48008;51.204;6.766;2023-04-03T02:10:46;19.67;;;7.22;;
62050;SDS011;48008;51.204;6.766;2023-04-03T02:13:15;17.33;;;7.00;;
62050;SDS011;48008;51.204;6.766;2023-04-03T02:15:42;18.92;;;7.45;;
62050;SDS011;48008;51.204;6.766;2023-04-03T02:18:09;20.52;;;7.53;;
62050;SDS011;48008;51.204;6.766;2023-04-03T02:20:36;21.95;;;7.22;;
62050;SDS011;48008;51.204;6.766;2023-04-03T02:23:04;18.17;;;7.40;;
62050;SDS011;48008;51.204;6.766;2023-04-03T02:25:31;18.48;;;7.75;;
62050;SDS011;48008;51.204;6.766;2023-04-03T02:27:58;23.63;;;8.05;;
62050;SDS011;48008;51.204;6.766;2023-04-03T02:30:25;21.70;;;8.65;;
62050;SDS011;48008;51.204;6.766;2023-04-03T02:32:53;24.30;;;8.10;;
62050;SDS011;48008;51.204;6.766;2023-04-03T02:35:19;25.40;;;8.48;;
62050;SDS011;48008;51.204;6.766;2023-04-03T02:37:47;21.25;;;8.90;;
62050;SDS011;48008;51.204;6.766;2023-04-03T02:40:14;21.50;;;8.90;;
62050;SDS011;48008;51.204;6.766;2023-04-03T02:42:41;22.33;;;9.00;;
62050;SDS011;48008;51.204;6.766;2023-04-03T02:45:08;23.63;;;9.90;;
62050;SDS011;48008;51.204;6.766;2023-04-03T02:47:35;22.00;;;9.05;;
62050;SDS011;48008;51.204;6.766;2023-04-03T02:50:01;26.75;;;9.85;;
62050;SDS011;48008;51.204;6.766;2023-04-03T02:52:30;24.73;;;9.52;;
62050;SDS011;48008;51.204;6.766;2023-04-03T02:54:58;30.27;;;9.85;;
62050;SDS011;48008;51.204;6.766;2023-04-03T02:57:24;28.05;;;9.43;;
62050;SDS011;48008;51.204;6.766;2023-04-03T02:59:51;21.58;;;9.15;;
62050;SDS011;48008;51.204;6.766;2023-04-03T03:02:18;25.45;;;9.88;;
62050;SDS011;48008;51.204;6.766;2023-04-03T03:04:44;23.85;;;9.32;;
62050;SDS011;48008;51.204;6.766;2023-04-03T03:07:11;27.77;;;9.80;;
62050;SDS011;48008;51.204;6.766;2023-04-03T03:09:38;28.40;;;9.32;;
62050;SDS011;48008;51.204;6.766;2023-04-03T03:12:04;26.75;;;10.13;;
62050;SDS011;48008;51.204;6.766;2023-04-03T03:14:31;26.85;;;10.52;;
62050;SDS011;48008;51.204;6.766;2023-04-03T03:16:58;22.55;;;9.40;;
62050;SDS011;48008;51.204;6.766;2023-04-03T03:19:25;25.33;;;9.27;;
62050;SDS011;48008;51.204;6.766;2023-04-03T03:21:52;25.67;;;9.70;;
62050;SDS011;48008;51.204;6.766;2023-04-03T03:24:18;21.45;;;9.48;;
62050;SDS011;48008;51.204;6.766;2023-04-03T03:26:46;21.33;;;9.30;;
62050;SDS011;48008;51.204;6.766;2023-04-03T03:29:13;24.05;;;10.05;;
62050;SDS011;48008;51.204;6.766;2023-04-03T03:31:40;28.73;;;9.98;;
62050;SDS011;48008;51.204;6.766;2023-04-03T03:34:08;21.23;;;9.38;;
62050;SDS011;48008;51.204;6.766;2023-04-03T03:36:34;25.50;;;9.00;;
62050;SDS011;48008;51.204;6.766;2023-04-03T03:39:02;24.50;;;9.60;;
62050;SDS011;48008;51.204;6.766;2023-04-03T03:41:28;23.48;;;9.05;;
62050;SDS011;48008;51.204;6.766;2023-04-03T03:43:56;22.33;;;9.75;;
62050;SDS011;48008;51.204;6.766;2023-04-03T03:46:24;22.20;;;8.15;;
62050;SDS011;48008;51.204;6.766;2023-04-03T03:48:51;18.75;;;8.00;;
62050;SDS011;48008;51.204;6.766;2023-04-03T03:51:18;22.67;;;8.60;;
62050;SDS011;48008;51.204;6.766;2023-04-03T03:53:45;24.48;;;9.35;;
62050;SDS011;48008;51.204;6.766;2023-04-03T03:56:14;20.15;;;7.97;;
62050;SDS011;48008;51.204;6.766;2023-04-03T03:58:43;25.42;;;8.88;;
62050;SDS011;48008;51.204;6.766;2023-04-03T04:01:11;21.02;;;8.75;;
62050;SDS011;48008;51.204;6.766;2023-04-03T04:03:42;18.27;;;8.50;;
62050;SDS011;48008;51.204;6.766;2023-04-03T04:06:11;24.52;;;8.93;;
62050;SDS011;48008;51.204;6.766;2023-04-03T04:08:39;24.55;;;8.48;;
62050;SDS011;48008;51.204;6.766;2023-04-03T04:11:09;22.10;;;9.05;;
62050;SDS011;48008;51.204;6.766;2023-04-03T04:13:37;20.83;;;7.70;;
62050;SDS011;48008;51.204;6.766;2023-04-03T04:16:04;19.85;;;8.13;;
62050;SDS011;48008;51.204;6.766;2023-04-03T04:18:32;18.35;;;7.95;;
62050;SDS011;48008;51.204;6.766;2023-04-03T04:20:59;20.17;;;7.57;;
62050;SDS011;48008;51.204;6.766;2023-04-03T04:23:26;24.40;;;8.77;;
62050;SDS011;48008;51.204;6.766;2023-04-03T04:25:53;19.63;;;7.70;;
62050;SDS011;48008;51.204;6.766;2023-04-03T04:28:21;17.25;;;7.57;;
62050;SDS011;48008;51.204;6.766;2023-04-03T04:30:50;20.52;;;7.95;;
62050;SDS011;48008;51.204;6.766;2023-04-03T04:33:18;17.45;;;7.15;;
62050;SDS011;48008;51.204;6.766;2023-04-03T04:35:47;17.17;;;7.05;;
62050;SDS011;48008;51.204;6.766;2023-04-03T04:38:16;24.48;;;7.43;;
62050;SDS011;48008;51.204;6.766;2023-04-03T04:40:43;15.30;;;6.18;;
62050;SDS011;48008;51.204;6.766;2023-04-03T04:43:11;19.17;;;6.68;;
62050;SDS011;48008;51.204;6.766;2023-04-03T04:45:42;21.13;;;7.47;;
62050;SDS011;48008;51.204;6.766;2023-04-03T04:48:09;31.70;;;7.47;;
62050;SDS011;48008;51.204;6.766;2023-04-03T04:50:35;20.88;;;6.95;;
62050;SDS011;48008;51.204;6.766;2023-04-03T04:53:03;17.40;;;6.57;;
62050;SDS011;48008;51.204;6.766;2023-04-03T04:55:30;17.33;;;6.28;;
62050;SDS011;48008;51.204;6.766;2023-04-03T04:57:57;21.55;;;7.00;;
62050;SDS011;48008;51.204;6.766;2023-04-03T05:00:24;24.60;;;6.85;;
62050;SDS011;48008;51.204;6.766;2023-04-03T05:02:51;18.05;;;6.88;;
62050;SDS011;48008;51.204;6.766;2023-04-03T05:05:18;14.88;;;6.57;;
62050;SDS011;48008;51.204;6.766;2023-04-03T05:07:45;18.30;;;5.93;;
62050;SDS011;48008;51.204;6.766;2023-04-03T05:10:12;15.27;;;6.15;;
62050;SDS011;48008;51.204;6.766;2023-04-03T05:12:39;18.13;;;6.30;;
62050;SDS011;48008;51.204;6.766;2023-04-03T05:15:07;19.25;;;6.10;;
62050;SDS011;48008;51.204;6.766;2023-04-03T05:17:35;20.50;;;6.38;;
62050;SDS011;48008;51.204;6.766;2023-04-03T05:20:04;20.10;;;6.57;;
62050;SDS011;48008;51.204;6.766;2023-04-03T05:22:33;25.40;;;6.50;;
62050;SDS011;48008;51.204;6.766;2023-04-03T05:27:32;14.45;;;6.00;;
62050;SDS011;48008;51.204;6.766;2023-04-03T05:29:59;21.50;;;6.32;;
62050;SDS011;48008;51.204;6.766;2023-04-03T05:32:26;21.45;;;7.18;;
62050;SDS011;48008;51.204;6.766;2023-04-03T05:35:06;19.15;;;6.57;;
62050;SDS011;48008;51.204;6.766;2023-04-03T05:37:34;19.95;;;6.38;;
62050;SDS011;48008;51.204;6.766;2023-04-03T05:40:02;20.35;;;6.32;;
62050;SDS011;48008;51.204;6.766;2023-04-03T05:42:31;20.00;;;6.43;;
62050;SDS011;48008;51.204;6.766;2023-04-03T05:44:58;18.40;;;6.65;;
62050;SDS011;48008;51.204;6.766;2023-04-03T05:47:25;25.55;;;6.70;;
62050;SDS011;48008;51.204;6.766;2023-04-03T05:49:52;23.80;;;6.82;;
62050;SDS011;48008;51.204;6.766;2023-04-03T05:52:26;16.38;;;6.43;;
62050;SDS011;48008;51.204;6.766;2023-04-03T05:54:54;19.00;;;6.30;;
62050;SDS011;48008;51.204;6.766;2023-04-03T05:57:25;19.65;;;6.60;;
62050;SDS011;48008;51.204;6.766;2023-04-03T05:59:52;21.05;;;6.65;;
62050;SDS011;48008;51.204;6.766;2023-04-03T06:02:21;22.20;;;6.65;;
62050;SDS011;48008;51.204;6.766;2023-04-03T06:04:50;22.27;;;6.00;;
62050;SDS011;48008;51.204;6.766;2023-04-03T06:07:19;17.15;;;6.03;;
62050;SDS011;48008;51.204;6.766;2023-04-03T06:09:49;23.02;;;6.22;;
62050;SDS011;48008;51.204;6.766;2023-04-03T06:12:18;24.10;;;6.97;;
62050;SDS011;48008;51.204;6.766;2023-04-03T06:14:45;25.35;;;6.35;;
62050;SDS011;48008;51.204;6.766;2023-04-03T06:17:13;15.60;;;5.78;;
62050;SDS011;48008;51.204;6.766;2023-04-03T06:19:42;19.20;;;6.13;;
62050;SDS011;48008;51.204;6.766;2023-04-03T06:22:08;23.60;;;6.25;;
62050;SDS011;48008;51.204;6.766;2023-04-03T06:24:35;18.42;;;7.15;;
62050;SDS011;48008;51.204;6.766;2023-04-03T06:27:02;23.40;;;6.93;;
62050;SDS011;48008;51.204;6.766;2023-04-03T06:29:29;18.52;;;6.57;;
62050;SDS011;48008;51.204;6.766;2023-04-03T06:31:55;20.05;;;6.65;;
62050;SDS011;48008;51.204;6.766;2023-04-03T06:34:22;19.35;;;7.00;;
62050;SDS011;48008;51.204;6.766;2023-04-03T06:36:49;21.13;;;6.07;;
62050;SDS011;48008;51.204;6.766;2023-04-03T06:39:18;21.48;;;5.78;;
62050;SDS011;48008;51.204;6.766;2023-04-03T06:41:49;16.33;;;6.10;;
62050;SDS011;48008;51.204;6.766;2023-04-03T06:44:18;21.23;;;5.97;;
62050;SDS011;48008;51.204;6.766;2023-04-03T06:46:45;24.08;;;6.93;;
62050;SDS011;48008;51.204;6.766;2023-04-03T06:49:12;17.88;;;5.72;;
62050;SDS011;48008;51.204;6.766;2023-04-03T06:51:40;15.13;;;5.60;;
62050;SDS011;48008;51.204;6.766;2023-04-03T06:54:06;16.00;;;5.47;;
62050;SDS011;48008;51.204;6.766;2023-04-03T06:56:34;15.48;;;5.18;;
62050;SDS011;48008;51.204;6.766;2023-04-03T06:59:01;16.63;;;4.88;;
62050;SDS011;48008;51.204;6.766;2023-04-03T07:01:28;13.85;;;4.40;;
62050;SDS011;48008;51.204;6.766;2023-04-03T07:03:56;15.77;;;5.15;;
62050;SDS011;48008;51.204;6.766;2023-04-03T07:06:23;19.80;;;5.40;;
62050;SDS011;48008;51.204;6.766;2023-04-03T07:08:52;15.07;;;5.15;;
62050;SDS011;48008;51.204;6.766;2023-04-03T07:11:21;18.25;;;4.90;;
62050;SDS011;48008;51.204;6.766;2023-04-03T07:13:47;14.77;;;5.00;;
62050;SDS011;48008;51.204;6.766;2023-04-03T07:16:15;16.83;;;5.45;;
62050;SDS011;48008;51.204;6.766;2023-04-03T07:18:42;17.55;;;4.85;;
62050;SDS011;48008;51.204;6.766;2023-04-03T07:21:08;15.23;;;5.20;;
62050;SDS011;48008;51.204;6.766;2023-04-03T07:23:35;13.60;;;5.28;;
62050;SDS011;48008;51.204;6.766;2023-04-03T07:26:02;15.48;;;5.18;;
62050;SDS011;48008;51.204;6.766;2023-04-03T07:28:29;16.40;;;5.15;;
62050;SDS011;48008;51.204;6.766;2023-04-03T07:31:00;15.13;;;4.03;;
62050;SDS011;48008;51.204;6.766;2023-04-03T07:33:30;15.30;;;4.57;;
62050;SDS011;48008;51.204;6.766;2023-04-03T07:35:57;12.93;;;4.30;;
62050;SDS011;48008;51.204;6.766;2023-04-03T07:38:24;13.63;;;4.28;;
62050;SDS011;48008;51.204;6.766;2023-04-03T07:40:52;13.63;;;3.65;;
62050;SDS011;48008;51.204;6.766;2023-04-03T07:43:19;14.07;;;3.58;;
62050;SDS011;48008;51.204;6.766;2023-04-03T07:45:47;15.10;;;3.70;;
62050;SDS011;48008;51.204;6.766;2023-04-03T07:48:18;11.75;;;3.30;;
62050;SDS011;48008;51.204;6.766;2023-04-03T07:50:46;13.60;;;3.78;;
62050;SDS011;48008;51.204;6.766;2023-04-03T07:53:13;14.75;;;4.35;;
62050;SDS011;48008;51.204;6.766;2023-04-03T07:55:40;16.67;;;3.85;;
62050;SDS011;48008;51.204;6.766;2023-04-03T07:58:10;17.17;;;3.65;;
62050;SDS011;48008;51.204;6.766;2023-04-03T08:00:38;12.50;;;3.63;;
62050;SDS011;48008;51.204;6.766;2023-04-03T08:03:05;11.85;;;3.20;;
62050;SDS011;48008;51.204;6.766;2023-04-03T08:05:42;8.23;;;3.17;;
62050;SDS011;48008;51.204;6.766;2023-04-03T08:08:12;8.88;;;3.03;;
62050;SDS011;48008;51.204;6.766;2023-04-03T08:10:40;14.93;;;3.25;;
62050;SDS011;48008;51.204;6.766;2023-04-03T08:13:08;9.90;;;3.13;;
62050;SDS011;48008;51.204;6.766;2023-04-03T08:15:35;15.35;;;3.42;;
62050;SDS011;48008;51.204;6.766;2023-04-03T08:18:03;8.75;;;3.08;;
62050;SDS011;48008;51.204;6.766;2023-04-03T08:20:30;13.05;;;3.10;;
62050;SDS011;48008;51.204;6.766;2023-04-03T08:22:57;14.00;;;2.92;;
62050;SDS011;48008;51.204;6.766;2023-04-03T08:25:24;13.05;;;2.95;;
62050;SDS011;48008;51.204;6.766;2023-04-03T08:27:51;7.85;;;2.75;;
62050;SDS011;48008;51.204;6.766;2023-04-03T08:30:18;19.63;;;2.90;;
62050;SDS011;48008;51.204;6.766;2023-04-03T08:32:45;8.65;;;2.60;;
62050;SDS011;48008;51.204;6.766;2023-04-03T08:35:12;9.02;;;2.50;;
62050;SDS011;48008;51.204;6.766;2023-04-03T08:37:39;10.45;;;2.53;;
62050;SDS011;48008;51.204;6.766;2023-04-03T08:40:07;9.65;;;2.50;;
62050;SDS011;48008;51.204;6.766;2023-04-03T08:45:50;9.63;;;3.22;;
62050;SDS011;48008;51.204;6.766;2023-04-03T08:48:23;7.20;;;2.55;;
62050;SDS011;48008;51.204;6.766;2023-04-03T08:50:57;8.32;;;2.55;;
62050;SDS011;48008;51.204;6.766;2023-04-03T08:53:28;7.82;;;2.78;;
62050;SDS011;48008;51.204;6.766;2023-04-03T08:55:58;9.75;;;2.20;;
62050;SDS011;48008;51.204;6.766;2023-04-03T08:58:33;13.65;;;5.05;;
62050;SDS011;48008;51.204;6.766;2023-04-03T09:01:25;13.00;;;2.70;;
62050;SDS011;48008;51.204;6.766;2023-04-03T09:03:56;10.20;;;2.50;;
62050;SDS011;48008;51.204;6.766;2023-04-03T09:06:27;9.20;;;2.25;;
62050;SDS011;48008;51.204;6.766;2023-04-03T09:09:31;6.45;;;2.00;;
62050;SDS011;48008;51.204;6.766;2023-04-03T09:12:39;7.72;;;2.10;;
62050;SDS011;48008;51.204;6.766;2023-04-03T09:15:29;10.20;;;2.22;;
62050;SDS011;48008;51.204;6.766;2023-04-03T09:18:23;8.68;;;2.17;;
62050;SDS011;48008;51.204;6.766;2023-04-03T09:26:19;8.90;;;2.30;;
62050;SDS011;48008;51.204;6.766;2023-04-03T09:28:54;9.23;;;2.50;;
62050;SDS011;48008;51.204;6.766;2023-04-03T09:31:26;10.07;;;2.40;;
62050;SDS011;48008;51.204;6.766;2023-04-03T09:33:58;9.07;;;2.70;;
62050;SDS011;48008;51.204;6.766;2023-04-03T09:36:45;8.63;;;2.50;;
62050;SDS011;48008;51.204;6.766;2023-04-03T09:39:16;5.38;;;2.05;;
62050;SDS011;48008;51.204;6.766;2023-04-03T09:42:02;10.10;;;2.50;;
62050;SDS011;48008;51.204;6.766;2023-04-03T09:44:36;10.80;;;2.30;;
62050;SDS011;48008;51.204;6.766;2023-04-03T09:47:35;12.65;;;2.70;;
62050;SDS011;48008;51.204;6.766;2023-04-03T09:50:09;6.22;;;2.03;;
62050;SDS011;48008;51.204;6.766;2023-04-03T09:52:49;9.55;;;2.65;;
62050;SDS011;48008;51.204;6.766;2023-04-03T09:55:20;7.07;;;2.50;;
62050;SDS011;48008;51.204;6.766;2023-04-03T09:57:54;10.32;;;2.45;;
62050;SDS011;48008;51.204;6.766;2023-04-03T10:00:23;8.75;;;2.50;;
62050;SDS011;48008;51.204;6.766;2023-04-03T10:02:54;8.65;;;2.28;;
62050;SDS011;48008;51.204;6.766;2023-04-03T10:08:10;8.77;;;2.50;;
62050;SDS011;48008;51.204;6.766;2023-04-03T10:10:48;6.00;;;2.33;;
62050;SDS011;48008;51.204;6.766;2023-04-03T10:13:30;9.55;;;2.40;;
62050;SDS011;48008;51.204;6.766;2023-04-03T10:16:01;8.50;;;2.55;;
62050;SDS011;48008;51.204;6.766;2023-04-03T10:18:38;7.63;;;2.38;;
62050;SDS011;48008;51.204;6.766;2023-04-03T10:21:14;10.77;;;2.38;;
62050;SDS011;48008;51.204;6.766;2023-04-03T10:23:54;7.05;;;2.30;;
62050;SDS011;48008;51.204;6.766;2023-04-03T10:26:52;9.93;;;2.50;;
62050;SDS011;48008;51.204;6.766;2023-04-03T10:29:27;8.88;;;2.85;;
62050;SDS011;48008;51.204;6.766;2023-04-03T10:32:40;12.27;;;2.67;;
62050;SDS011;48008;51.204;6.766;2023-04-03T10:35:20;10.43;;;2.45;;
62050;SDS011;48008;51.204;6.766;2023-04-03T10:38:03;7.13;;;2.47;;
62050;SDS011;48008;51.204;6.766;2023-04-03T10:40:57;8.85;;;2.40;;
62050;SDS011;48008;51.204;6.766;2023-04-03T10:43:36;5.00;;;1.90;;
62050;SDS011;48008;51.204;6.766;2023-04-03T10:46:13;8.57;;;2.72;;
62050;SDS011;48008;51.204;6.766;2023-04-03T10:48:52;8.23;;;2.50;;
62050;SDS011;48008;51.204;6.766;2023-04-03T10:51:44;6.40;;;2.17;;
62050;SDS011;48008;51.204;6.766;2023-04-03T10:57:04;8.57;;;2.33;;
62050;SDS011;48008;51.204;6.766;2023-04-03T10:59:45;7.20;;;2.15;;
62050;SDS011;48008;51.204;6.766;2023-04-03T11:05:01;11.32;;;2.20;;
62050;SDS011;48008;51.204;6.766;2023-04-03T11:07:39;8.77;;;1.90;;
62050;SDS011;48008;51.204;6.766;2023-04-03T11:10:11;5.40;;;1.70;;
62050;SDS011;48008;51.204;6.766;2023-04-03T11:12:46;8.05;;;1.92;;
62050;SDS011;48008;51.204;6.766;2023-04-03T11:15:16;10.57;;;1.73;;
62050;SDS011;48008;51.204;6.766;2023-04-03T11:17:48;3.75;;;1.40;;
62050;SDS011;48008;51.204;6.766;2023-04-03T11:20:24;6.22;;;1.75;;
62050;SDS011;48008;51.204;6.766;2023-04-03T11:23:00;4.07;;;1.60;;
62050;SDS011;48008;51.204;6.766;2023-04-03T11:25:31;6.13;;;1.70;;
62050;SDS011;48008;51.204;6.766;2023-04-03T11:28:02;9.10;;;1.60;;
62050;SDS011;48008;51.204;6.766;2023-04-03T11:30:36;10.10;;;1.67;;
62050;SDS011;48008;51.204;6.766;2023-04-03T11:36:27;3.13;;;1.30;;
62050;SDS011;48008;51.204;6.766;2023-04-03T11:39:00;5.70;;;1.70;;
62050;SDS011;48008;51.204;6.766;2023-04-03T11:41:36;6.53;;;1.60;;
62050;SDS011;48008;51.204;6.766;2023-04-03T11:44:04;4.90;;;1.85;;
62050;SDS011;48008;51.204;6.766;2023-04-03T11:46:57;4.97;;;1.77;;
62050;SDS011;48008;51.204;6.766;2023-04-03T11:49:57;3.78;;;1.48;;
62050;SDS011;48008;51.204;6.766;2023-04-03T11:52:55;3.20;;;1.30;;
62050;SDS011;48008;51.204;6.766;2023-04-03T11:58:03;5.65;;;1.52;;
62050;SDS011;48008;51.204;6.766;2023-04-03T12:00:48;5.78;;;1.50;;
62050;SDS011;48008;51.204;6.766;2023-04-03T12:11:24;5.43;;;1.55;;
62050;SDS011;48008;51.204;6.766;2023-04-03T12:16:28;3.90;;;1.50;;
62050;SDS011;48008;51.204;6.766;2023-04-03T12:19:02;5.80;;;1.55;;
62050;SDS011;48008;51.204;6.766;2023-04-03T12:37:53;7.22;;;1.98;;
62050;SDS011;48008;51.204;6.766;2023-04-03T12:45:59;6.40;;;1.70;;
62050;SDS011;48008;51.204;6.766;2023-04-03T12:48:32;4.25;;;1.70;;
62050;SDS011;48008;51.204;6.766;2023-04-03T12:51:04;5.05;;;1.70;;
62050;SDS011;48008;51.204;6.766;2023-04-03T12:53:33;9.43;;;1.80;;
62050;SDS011;48008;51.204;6.766;2023-04-03T12:56:33;7.72;;;1.95;;
62050;SDS011;48008;51.204;6.766;2023-04-03T12:58:54;9.43;;;1.95;;
62050;SDS011;48008;51.204;6.766;2023-04-03T13:01:38;11.90;;;1.83;;
62050;SDS011;48008;51.204;6.766;2023-04-03T13:04:05;5.10;;;1.70;;
62050;SDS011;48008;51.204;6.766;2023-04-03T13:06:41;5.30;;;1.67;;
62050;SDS011;48008;51.204;6.766;2023-04-03T13:09:18;5.55;;;1.83;;
62050;SDS011;48008;51.204;6.766;2023-04-03T13:12:03;6.35;;;1.77;;
62050;SDS011;48008;51.204;6.766;2023-04-03T13:14:37;6.85;;;1.90;;
62050;SDS011;48008;51.204;6.766;2023-04-03T13:17:19;6.75;;;1.75;;
62050;SDS011;48008;51.204;6.766;2023-04-03T13:19:47;6.50;;;1.60;;
62050;SDS011;48008;51.204;6.766;2023-04-03T13:22:22;6.40;;;1.70;;
62050;SDS011;48008;51.204;6.766;2023-04-03T13:25:02;5.88;;;1.67;;
62050;SDS011;48008;51.204;6.766;2023-04-03T13:27:33;6.30;;;1.80;;
62050;SDS011;48008;51.204;6.766;2023-04-03T13:30:01;5.93;;;2.00;;
62050;SDS011;48008;51.204;6.766;2023-04-03T13:32:30;4.90;;;1.85;;
62050;SDS011;48008;51.204;6.766;2023-04-03T13:34:59;6.57;;;1.90;;
62050;SDS011;48008;51.204;6.766;2023-04-03T13:37:33;6.03;;;1.90;;
62050;SDS011;48008;51.204;6.766;2023-04-03T13:42:44;6.03;;;2.00;;
62050;SDS011;48008;51.204;6.766;2023-04-03T13:45:21;10.15;;;1.90;;
62050;SDS011;48008;51.204;6.766;2023-04-03T13:47:52;7.43;;;2.08;;
62050;SDS011;48008;51.204;6.766;2023-04-03T13:50:50;4.38;;;1.73;;
62050;SDS011;48008;51.204;6.766;2023-04-03T13:53:29;7.63;;;1.90;;
62050;SDS011;48008;51.204;6.766;2023-04-03T13:56:00;8.05;;;2.40;;
62050;SDS011;48008;51.204;6.766;2023-04-03T13:58:34;5.90;;;2.00;;
62050;SDS011;48008;51.204;6.766;2023-04-03T14:01:14;5.28;;;1.80;;
62050;SDS011;48008;51.204;6.766;2023-04-03T14:04:00;6.88;;;1.83;;
62050;SDS011;48008;51.204;6.766;2023-04-03T14:06:35;8.10;;;1.85;;
62050;SDS011;48008;51.204;6.766;2023-04-03T14:09:02;6.00;;;2.00;;
62050;SDS011;48008;51.204;6.766;2023-04-03T14:11:29;9.05;;;2.08;;
62050;SDS011;48008;51.204;6.766;2023-04-03T14:13:58;6.82;;;2.00;;
62050;SDS011;48008;51.204;6.766;2023-04-03T14:16:30;6.10;;;1.90;;
62050;SDS011;48008;51.204;6.766;2023-04-03T14:18:58;5.18;;;2.00;;
62050;SDS011;48008;51.204;6.766;2023-04-03T14:21:24;12.70;;;2.08;;
62050;SDS011;48008;51.204;6.766;2023-04-03T14:23:52;7.70;;;1.90;;
62050;SDS011;48008;51.204;6.766;2023-04-03T14:26:20;8.73;;;2.00;;
62050;SDS011;48008;51.204;6.766;2023-04-03T14:28:49;11.05;;;2.20;;
62050;SDS011;48008;51.204;6.766;2023-04-03T14:31:18;6.72;;;1.80;;
62050;SDS011;48008;51.204;6.766;2023-04-03T14:33:45;8.05;;;2.20;;
62050;SDS011;48008;51.204;6.766;2023-04-03T14:36:21;6.38;;;1.92;;
62050;SDS011;48008;51.204;6.766;2023-04-03T14:38:51;7.65;;;1.83;;
62050;SDS011;48008;51.204;6.766;2023-04-03T14:41:20;7.18;;;1.85;;
62050;SDS011;48008;51.204;6.766;2023-04-03T14:43:49;5.50;;;1.70;;
62050;SDS011;48008;51.204;6.766;2023-04-03T14:46:18;7.28;;;1.90;;
62050;SDS011;48008;51.204;6.766;2023-04-03T14:48:51;4.32;;;1.65;;
62050;SDS011;48008;51.204;6.766;2023-04-03T14:51:18;7.82;;;2.13;;
62050;SDS011;48008;51.204;6.766;2023-04-03T14:53:46;6.90;;;1.88;;
62050;SDS011;48008;51.204;6.766;2023-04-03T14:56:16;6.40;;;1.88;;
62050;SDS011;48008;51.204;6.766;2023-04-03T14:58:45;8.70;;;1.90;;
62050;SDS011;48008;51.204;6.766;2023-04-03T15:01:16;7.40;;;2.10;;
62050;SDS011;48008;51.204;6.766;2023-04-03T15:03:44;6.18;;;2.00;;
62050;SDS011;48008;51.204;6.766;2023-04-03T15:06:11;6.25;;;1.80;;
62050;SDS011;48008;51.204;6.766;2023-04-03T15:08:40;6.28;;;1.90;;
62050;SDS011;48008;51.204;6.766;2023-04-03T15:11:09;5.28;;;1.60;;
62050;SDS011;48008;51.204;6.766;2023-04-03T15:13:37;12.60;;;6.35;;
62050;SDS011;48008;51.204;6.766;2023-04-03T15:16:05;20.30;;;10.18;;
62050;SDS011;48008;51.204;6.766;2023-04-03T15:18:40;10.05;;;2.08;;
62050;SDS011;48008;51.204;6.766;2023-04-03T15:21:07;6.43;;;1.88;;
62050;SDS011;48008;51.204;6.766;2023-04-03T15:23:34;6.38;;;2.00;;
62050;SDS011;48008;51.204;6.766;2023-04-03T15:26:00;7.00;;;1.90;;
62050;SDS011;48008;51.204;6.766;2023-04-03T15:28:35;7.07;;;2.10;;
62050;SDS011;48008;51.204;6.766;2023-04-03T15:31:05;7.88;;;1.80;;
62050;SDS011;48008;51.204;6.766;2023-04-03T15:33:33;6.57;;;1.90;;
62050;SDS011;48008;51.204;6.766;2023-04-03T15:36:01;7.97;;;2.13;;
62050;SDS011;48008;51.204;6.766;2023-04-03T15:38:31;9.05;;;2.47;;
62050;SDS011;48008;51.204;6.766;2023-04-03T15:40:58;7.03;;;2.50;;
62050;SDS011;48008;51.204;6.766;2023-04-03T15:43:25;6.80;;;2.15;;
62050;SDS011;48008;51.204;6.766;2023-04-03T15:45:52;7.63;;;1.92;;
62050;SDS011;48008;51.204;6.766;2023-04-03T15:48:25;5.50;;;1.95;;
62050;SDS011;48008;51.204;6.766;2023-04-03T15:50:53;8.63;;;2.10;;
62050;SDS011;48008;51.204;6.766;2023-04-03T15:53:21;6.22;;;2.00;;
62050;SDS011;48008;51.204;6.766;2023-04-03T15:55:48;8.50;;;2.30;;
62050;SDS011;48008;51.204;6.766;2023-04-03T15:58:14;5.80;;;1.73;;
62050;SDS011;48008;51.204;6.766;2023-04-03T16:00:41;8.45;;;2.00;;
62050;SDS011;48008;51.204;6.766;2023-04-03T16:03:10;8.25;;;2.35;;
62050;SDS011;48008;51.204;6.766;2023-04-03T16:05:38;8.52;;;1.90;;